sensor_id;sensor_type;location;lat;lon;timestamp;temperature;humidity
46331;DHT22;32049;52.346;4.870;2022-10-22T00:24:51;14.70;99.90
46331;DHT22;32049;52.346;4.870;2022-10-22T00:27:42;14.70;99.90
46331;DHT22;32049;52.346;4.870;2022-10-22T00:30:29;14.80;99.90
46331;DHT22;32049;52.346;4.870;2022-10-22T00:33:18;14.70;99.90
46331;DHT22;32049;52.346;4.870;2022-10-22T00:36:16;14.80;99.90
46331;DHT22;32049;52.346;4.870;2022-10-22T00:39:13;14.80;99.90
46331;DHT22;32049;52.346;4.870;2022-10-22T00:42:03;14.70;99.90
46331;DHT22;32049;52.346;4.870;2022-10-22T00:48:14;14.80;99.90
46331;DHT22;32049;52.346;4.870;2022-10-22T00:51:07;14.80;99.90
46331;DHT22;32049;52.346;4.870;2022-10-22T00:54:06;14.90;99.90
46331;DHT22;32049;52.346;4.870;2022-10-22T00:57:04;15.00;99.90
46331;DHT22;32049;52.346;4.870;2022-10-22T00:59:58;14.90;99.90
46331;DHT22;32049;52.346;4.870;2022-10-22T01:02:50;14.90;99.90
46331;DHT22;32049;52.346;4.870;2022-10-22T01:06:00;14.90;99.90
46331;DHT22;32049;52.346;4.870;2022-10-22T01:09:04;14.90;99.90
46331;DHT22;32049;52.346;4.870;2022-10-22T01:15:44;14.90;99.90
46331;DHT22;32049;52.346;4.870;2022-10-22T01:21:30;15.00;99.90
46331;DHT22;32049;52.346;4.870;2022-10-22T01:27:51;15.10;99.90
46331;DHT22;32049;52.346;4.870;2022-10-22T01:30:41;15.10;99.90
46331;DHT22;32049;52.346;4.870;2022-10-22T01:33:31;15.10;99.90
46331;DHT22;32049;52.346;4.870;2022-10-22T01:36:21;15.10;99.90
46331;DHT22;32049;52.346;4.870;2022-10-22T01:39:11;15.10;99.90
46331;DHT22;32049;52.346;4.870;2022-10-22T01:42:06;15.10;99.90
46331;DHT22;32049;52.346;4.870;2022-10-22T01:44:58;15.10;99.90
46331;DHT22;32049;52.346;4.870;2022-10-22T01:51:24;15.10;99.90
46331;DHT22;32049;52.346;4.870;2022-10-22T01:57:53;15.20;99.90
46331;DHT22;32049;52.346;4.870;2022-10-22T02:01:25;15.10;99.90
46331;DHT22;32049;52.346;4.870;2022-10-22T02:04:37;15.10;99.90
46331;DHT22;32049;52.346;4.870;2022-10-22T02:07:54;15.10;99.90
46331;DHT22;32049;52.346;4.870;2022-10-22T02:10:44;15.10;99.90
46331;DHT22;32049;52.346;4.870;2022-10-22T02:13:36;15.10;99.90
46331;DHT22;32049;52.346;4.870;2022-10-22T02:16:40;15.10;99.90
46331;DHT22;32049;52.346;4.870;2022-10-22T02:19:46;15.20;99.90
46331;DHT22;32049;52.346;4.870;2022-10-22T06:14:00;14.40;99.90
46331;DHT22;32049;52.346;4.870;2022-10-22T06:16:58;14.40;99.90
46331;DHT22;32049;52.346;4.870;2022-10-22T06:19:51;14.30;99.90
46331;DHT22;32049;52.346;4.870;2022-10-22T06:22:43;14.40;99.90
46331;DHT22;32049;52.346;4.870;2022-10-22T06:25:33;14.40;99.90
46331;DHT22;32049;52.346;4.870;2022-10-22T06:28:21;14.40;99.90
46331;DHT22;32049;52.346;4.870;2022-10-22T06:31:10;14.50;99.90
46331;DHT22;32049;52.346;4.870;2022-10-22T06:34:10;14.40;99.90
46331;DHT22;32049;52.346;4.870;2022-10-22T06:37:02;14.50;99.90
46331;DHT22;32049;52.346;4.870;2022-10-22T06:39:56;14.50;99.90
46331;DHT22;32049;52.346;4.870;2022-10-22T06:42:48;14.60;99.90
46331;DHT22;32049;52.346;4.870;2022-10-22T06:45:36;14.60;99.90
46331;DHT22;32049;52.346;4.870;2022-10-22T06:48:27;14.60;99.90
46331;DHT22;32049;52.346;4.870;2022-10-22T06:51:18;14.60;99.90
46331;DHT22;32049;52.346;4.870;2022-10-22T06:54:11;14.60;99.90
46331;DHT22;32049;52.346;4.870;2022-10-22T07:00:27;14.60;99.90
46331;DHT22;32049;52.346;4.870;2022-10-22T07:03:15;14.50;99.90
46331;DHT22;32049;52.346;4.870;2022-10-22T07:06:12;14.70;99.90
46331;DHT22;32049;52.346;4.870;2022-10-22T07:09:15;14.70;99.90
46331;DHT22;32049;52.346;4.870;2022-10-22T07:12:06;14.60;99.90
46331;DHT22;32049;52.346;4.870;2022-10-22T07:14:55;14.60;99.90
46331;DHT22;32049;52.346;4.870;2022-10-22T07:18:12;14.60;99.90
46331;DHT22;32049;52.346;4.870;2022-10-22T07:21:01;14.70;99.90
46331;DHT22;32049;52.346;4.870;2022-10-22T07:24:03;14.70;99.90
46331;DHT22;32049;52.346;4.870;2022-10-22T07:27:01;14.70;99.90
46331;DHT22;32049;52.346;4.870;2022-10-22T07:29:54;14.70;99.90
46331;DHT22;32049;52.346;4.870;2022-10-22T07:32:45;14.70;99.90
46331;DHT22;32049;52.346;4.870;2022-10-22T07:35:44;14.60;99.90
46331;DHT22;32049;52.346;4.870;2022-10-22T07:39:05;14.80;99.90
46331;DHT22;32049;52.346;4.870;2022-10-22T07:42:16;14.90;99.90
46331;DHT22;32049;52.346;4.870;2022-10-22T07:45:04;15.10;99.90
46331;DHT22;32049;52.346;4.870;2022-10-22T07:47:55;15.00;99.90
46331;DHT22;32049;52.346;4.870;2022-10-22T07:50:56;14.90;99.90
46331;DHT22;32049;52.346;4.870;2022-10-22T07:53:48;14.90;99.90
46331;DHT22;32049;52.346;4.870;2022-10-22T07:56:41;14.90;99.90
46331;DHT22;32049;52.346;4.870;2022-10-22T07:59:32;14.90;99.90
46331;DHT22;32049;52.346;4.870;2022-10-22T08:02:23;14.90;99.90
46331;DHT22;32049;52.346;4.870;2022-10-22T08:05:16;14.90;99.90
46331;DHT22;32049;52.346;4.870;2022-10-22T08:08:13;14.90;99.90
46331;DHT22;32049;52.346;4.870;2022-10-22T08:11:01;15.00;99.90
46331;DHT22;32049;52.346;4.870;2022-10-22T08:24:10;14.90;99.90
46331;DHT22;32049;52.346;4.870;2022-10-22T08:27:01;15.10;99.90
46331;DHT22;32049;52.346;4.870;2022-10-22T08:29:58;15.10;99.90
46331;DHT22;32049;52.346;4.870;2022-10-22T08:32:48;15.10;99.90
46331;DHT22;32049;52.346;4.870;2022-10-22T08:35:40;15.10;99.90
46331;DHT22;32049;52.346;4.870;2022-10-22T08:38:32;15.10;99.90
46331;DHT22;32049;52.346;4.870;2022-10-22T08:41:28;15.10;99.90
46331;DHT22;32049;52.346;4.870;2022-10-22T08:48:09;15.20;99.90
46331;DHT22;32049;52.346;4.870;2022-10-22T08:51:17;15.20;99.90
46331;DHT22;32049;52.346;4.870;2022-10-22T08:57:54;15.20;99.90
46331;DHT22;32049;52.346;4.870;2022-10-22T09:01:00;15.20;99.90
46331;DHT22;32049;52.346;4.870;2022-10-22T09:07:00;15.30;99.90
46331;DHT22;32049;52.346;4.870;2022-10-22T09:10:11;15.40;99.90
46331;DHT22;32049;52.346;4.870;2022-10-22T09:13:01;15.40;99.90
46331;DHT22;32049;52.346;4.870;2022-10-22T09:16:00;15.40;99.90
46331;DHT22;32049;52.346;4.870;2022-10-22T09:25:34;15.70;99.90
46331;DHT22;32049;52.346;4.870;2022-10-22T09:28:30;15.80;99.90
46331;DHT22;32049;52.346;4.870;2022-10-22T09:31:34;15.70;99.90
46331;DHT22;32049;52.346;4.870;2022-10-22T09:34:35;15.80;99.90
46331;DHT22;32049;52.346;4.870;2022-10-22T09:37:30;15.90;99.90
46331;DHT22;32049;52.346;4.870;2022-10-22T09:40:19;15.90;99.90
46331;DHT22;32049;52.346;4.870;2022-10-22T09:43:11;16.10;99.90
46331;DHT22;32049;52.346;4.870;2022-10-22T09:46:16;16.20;99.90
46331;DHT22;32049;52.346;4.870;2022-10-22T09:49:14;16.30;99.90
46331;DHT22;32049;52.346;4.870;2022-10-22T09:52:25;16.30;99.90
46331;DHT22;32049;52.346;4.870;2022-10-22T09:55:19;16.40;99.90
46331;DHT22;32049;52.346;4.870;2022-10-22T09:58:16;16.40;99.90
46331;DHT22;32049;52.346;4.870;2022-10-22T10:01:21;16.70;99.90
46331;DHT22;32049;52.346;4.870;2022-10-22T10:04:16;16.80;99.90
46331;DHT22;32049;52.346;4.870;2022-10-22T10:07:19;16.90;99.90
46331;DHT22;32049;52.346;4.870;2022-10-22T10:10:55;17.00;99.90
46331;DHT22;32049;52.346;4.870;2022-10-22T10:28:54;16.40;99.90
46331;DHT22;32049;52.346;4.870;2022-10-22T10:32:02;16.40;99.90
46331;DHT22;32049;52.346;4.870;2022-10-22T10:35:15;16.60;99.90
46331;DHT22;32049;52.346;4.870;2022-10-22T10:39:14;17.00;99.90
46331;DHT22;32049;52.346;4.870;2022-10-22T10:42:40;17.40;99.90
46331;DHT22;32049;52.346;4.870;2022-10-22T10:49:32;17.00;99.90
46331;DHT22;32049;52.346;4.870;2022-10-22T10:52:39;17.50;99.90
46331;DHT22;32049;52.346;4.870;2022-10-22T10:55:56;17.30;99.90
46331;DHT22;32049;52.346;4.870;2022-10-22T10:59:08;17.00;99.90
46331;DHT22;32049;52.346;4.870;2022-10-22T11:05:39;17.00;99.90
46331;DHT22;32049;52.346;4.870;2022-10-22T11:12:01;17.70;99.90
46331;DHT22;32049;52.346;4.870;2022-10-22T11:15:36;17.60;99.90
46331;DHT22;32049;52.346;4.870;2022-10-22T11:18:39;17.50;99.90
46331;DHT22;32049;52.346;4.870;2022-10-22T11:21:44;18.00;99.90
46331;DHT22;32049;52.346;4.870;2022-10-22T11:25:14;18.20;99.90
46331;DHT22;32049;52.346;4.870;2022-10-22T11:28:12;18.00;99.90
46331;DHT22;32049;52.346;4.870;2022-10-22T11:31:20;18.30;99.90
46331;DHT22;32049;52.346;4.870;2022-10-22T11:34:20;18.10;99.90
46331;DHT22;32049;52.346;4.870;2022-10-22T11:37:31;17.70;99.90
46331;DHT22;32049;52.346;4.870;2022-10-22T11:41:17;17.40;99.90
46331;DHT22;32049;52.346;4.870;2022-10-22T15:25:33;18.80;99.90
46331;DHT22;32049;52.346;4.870;2022-10-22T15:28:22;18.70;99.90
46331;DHT22;32049;52.346;4.870;2022-10-22T15:31:42;18.60;99.90
46331;DHT22;32049;52.346;4.870;2022-10-22T15:35:13;18.40;99.90
46331;DHT22;32049;52.346;4.870;2022-10-22T15:38:03;18.50;99.90
46331;DHT22;32049;52.346;4.870;2022-10-22T15:41:14;19.00;99.90
46331;DHT22;32049;52.346;4.870;2022-10-22T15:44:03;19.10;99.90
46331;DHT22;32049;52.346;4.870;2022-10-22T15:46:53;19.00;99.90
46331;DHT22;32049;52.346;4.870;2022-10-22T15:50:12;18.70;99.90
46331;DHT22;32049;52.346;4.870;2022-10-22T15:53:08;18.20;99.90
46331;DHT22;32049;52.346;4.870;2022-10-22T15:56:10;17.90;99.90
46331;DHT22;32049;52.346;4.870;2022-10-22T15:59:01;17.70;99.90
46331;DHT22;32049;52.346;4.870;2022-10-22T16:01:57;17.30;99.90
46331;DHT22;32049;52.346;4.870;2022-10-22T16:04:49;17.30;99.90
46331;DHT22;32049;52.346;4.870;2022-10-22T16:07:42;17.20;99.90
46331;DHT22;32049;52.346;4.870;2022-10-22T16:10:45;17.20;99.90
46331;DHT22;32049;52.346;4.870;2022-10-22T16:13:34;17.10;99.90
46331;DHT22;32049;52.346;4.870;2022-10-22T16:16:25;17.00;99.90
46331;DHT22;32049;52.346;4.870;2022-10-22T16:19:15;17.00;99.90
46331;DHT22;32049;52.346;4.870;2022-10-22T16:22:07;17.00;99.90
46331;DHT22;32049;52.346;4.870;2022-10-22T16:25:09;16.90;99.90
46331;DHT22;32049;52.346;4.870;2022-10-22T16:28:00;16.80;99.90
46331;DHT22;32049;52.346;4.870;2022-10-22T16:30:50;16.80;99.90
46331;DHT22;32049;52.346;4.870;2022-10-22T16:33:42;16.70;99.90
46331;DHT22;32049;52.346;4.870;2022-10-22T16:36:35;16.60;99.90
46331;DHT22;32049;52.346;4.870;2022-10-22T16:39:25;16.70;99.90
46331;DHT22;32049;52.346;4.870;2022-10-22T16:42:13;16.60;99.90
46331;DHT22;32049;52.346;4.870;2022-10-22T16:45:03;16.60;99.90
46331;DHT22;32049;52.346;4.870;2022-10-22T16:47:51;16.60;99.90
46331;DHT22;32049;52.346;4.870;2022-10-22T16:50:40;16.50;99.90
46331;DHT22;32049;52.346;4.870;2022-10-22T16:53:28;16.40;99.90
46331;DHT22;32049;52.346;4.870;2022-10-22T16:56:21;16.50;99.90
46331;DHT22;32049;52.346;4.870;2022-10-22T16:59:09;16.40;99.90
46331;DHT22;32049;52.346;4.870;2022-10-22T17:01:58;16.40;99.90
46331;DHT22;32049;52.346;4.870;2022-10-22T17:04:49;16.30;99.90
46331;DHT22;32049;52.346;4.870;2022-10-22T17:07:37;16.20;99.90
46331;DHT22;32049;52.346;4.870;2022-10-22T17:10:26;16.30;99.90
46331;DHT22;32049;52.346;4.870;2022-10-22T17:13:28;16.30;99.90
46331;DHT22;32049;52.346;4.870;2022-10-22T17:16:21;16.10;99.90
46331;DHT22;32049;52.346;4.870;2022-10-22T17:19:12;16.00;99.90
46331;DHT22;32049;52.346;4.870;2022-10-22T17:22:05;16.00;99.90
46331;DHT22;32049;52.346;4.870;2022-10-22T17:28:10;16.00;99.90
46331;DHT22;32049;52.346;4.870;2022-10-22T17:31:10;15.90;99.90
46331;DHT22;32049;52.346;4.870;2022-10-22T17:34:28;16.00;99.90
46331;DHT22;32049;52.346;4.870;2022-10-22T17:37:24;15.80;99.90
46331;DHT22;32049;52.346;4.870;2022-10-22T17:40:15;15.80;99.90
46331;DHT22;32049;52.346;4.870;2022-10-22T17:43:12;15.80;99.90
46331;DHT22;32049;52.346;4.870;2022-10-22T17:46:09;15.70;99.90
46331;DHT22;32049;52.346;4.870;2022-10-22T17:49:06;15.60;99.90
46331;DHT22;32049;52.346;4.870;2022-10-22T17:52:01;15.70;99.90
46331;DHT22;32049;52.346;4.870;2022-10-22T17:55:01;15.60;99.90
46331;DHT22;32049;52.346;4.870;2022-10-22T17:57:51;15.60;99.90
46331;DHT22;32049;52.346;4.870;2022-10-22T18:00:42;15.40;99.90
46331;DHT22;32049;52.346;4.870;2022-10-22T18:03:54;15.40;99.90
46331;DHT22;32049;52.346;4.870;2022-10-22T18:07:00;15.40;99.90
46331;DHT22;32049;52.346;4.870;2022-10-22T18:09:55;15.40;99.90
46331;DHT22;32049;52.346;4.870;2022-10-22T18:12:49;15.40;99.90
46331;DHT22;32049;52.346;4.870;2022-10-22T18:15:37;15.40;99.90
46331;DHT22;32049;52.346;4.870;2022-10-22T18:19:00;15.30;99.90
46331;DHT22;32049;52.346;4.870;2022-10-22T18:21:51;15.40;99.90
46331;DHT22;32049;52.346;4.870;2022-10-22T18:24:48;15.30;99.90
46331;DHT22;32049;52.346;4.870;2022-10-22T18:27:39;15.20;99.90
46331;DHT22;32049;52.346;4.870;2022-10-22T18:30:37;15.20;99.90
46331;DHT22;32049;52.346;4.870;2022-10-22T18:33:46;15.20;99.90
46331;DHT22;32049;52.346;4.870;2022-10-22T18:36:49;15.10;99.90
46331;DHT22;32049;52.346;4.870;2022-10-22T18:39:40;15.00;99.90
46331;DHT22;32049;52.346;4.870;2022-10-22T18:42:37;15.00;99.90
46331;DHT22;32049;52.346;4.870;2022-10-22T18:46:09;15.10;99.90
46331;DHT22;32049;52.346;4.870;2022-10-22T18:49:00;15.00;99.90
46331;DHT22;32049;52.346;4.870;2022-10-22T18:52:03;15.00;99.90
46331;DHT22;32049;52.346;4.870;2022-10-22T18:55:12;15.00;99.90
46331;DHT22;32049;52.346;4.870;2022-10-22T18:58:02;14.90;99.90
46331;DHT22;32049;52.346;4.870;2022-10-22T19:00:51;14.90;99.90
46331;DHT22;32049;52.346;4.870;2022-10-22T19:03:46;15.00;99.90
46331;DHT22;32049;52.346;4.870;2022-10-22T19:06:35;15.00;99.90
46331;DHT22;32049;52.346;4.870;2022-10-22T19:09:38;14.90;99.90
46331;DHT22;32049;52.346;4.870;2022-10-22T19:12:35;14.90;99.90
46331;DHT22;32049;52.346;4.870;2022-10-22T19:15:32;14.90;99.90
46331;DHT22;32049;52.346;4.870;2022-10-22T19:19:05;14.80;99.90
46331;DHT22;32049;52.346;4.870;2022-10-22T19:21:56;14.90;99.90
46331;DHT22;32049;52.346;4.870;2022-10-22T19:24:53;14.90;99.90
46331;DHT22;32049;52.346;4.870;2022-10-22T19:27:52;14.90;99.90
46331;DHT22;32049;52.346;4.870;2022-10-22T19:30:42;14.80;99.90
46331;DHT22;32049;52.346;4.870;2022-10-22T19:33:44;14.80;99.90
46331;DHT22;32049;52.346;4.870;2022-10-22T19:37:04;14.80;99.90
46331;DHT22;32049;52.346;4.870;2022-10-22T19:40:30;14.80;99.90
46331;DHT22;32049;52.346;4.870;2022-10-22T19:43:24;14.80;99.90
46331;DHT22;32049;52.346;4.870;2022-10-22T19:46:25;14.80;99.90
46331;DHT22;32049;52.346;4.870;2022-10-22T19:49:18;14.80;99.90
46331;DHT22;32049;52.346;4.870;2022-10-22T19:52:10;14.80;99.90
46331;DHT22;32049;52.346;4.870;2022-10-22T19:54:59;14.70;99.90
46331;DHT22;32049;52.346;4.870;2022-10-22T19:57:55;14.80;99.90
46331;DHT22;32049;52.346;4.870;2022-10-22T20:00:53;14.80;99.90
46331;DHT22;32049;52.346;4.870;2022-10-22T20:03:44;14.90;99.90
46331;DHT22;32049;52.346;4.870;2022-10-22T20:06:55;14.90;99.90
46331;DHT22;32049;52.346;4.870;2022-10-22T20:09:45;14.90;99.90
46331;DHT22;32049;52.346;4.870;2022-10-22T20:12:44;14.90;99.90
46331;DHT22;32049;52.346;4.870;2022-10-22T20:16:03;15.00;99.90
46331;DHT22;32049;52.346;4.870;2022-10-22T20:22:27;14.80;99.90
46331;DHT22;32049;52.346;4.870;2022-10-22T20:25:20;14.80;99.90
46331;DHT22;32049;52.346;4.870;2022-10-22T20:28:12;14.80;99.90
46331;DHT22;32049;52.346;4.870;2022-10-22T20:31:19;14.80;99.90
46331;DHT22;32049;52.346;4.870;2022-10-22T20:34:31;14.90;99.90
46331;DHT22;32049;52.346;4.870;2022-10-22T20:37:40;14.80;99.90
46331;DHT22;32049;52.346;4.870;2022-10-22T20:40:36;14.90;99.90
46331;DHT22;32049;52.346;4.870;2022-10-22T20:43:44;14.80;99.90
46331;DHT22;32049;52.346;4.870;2022-10-22T20:46:46;14.80;99.90
46331;DHT22;32049;52.346;4.870;2022-10-22T20:49:41;14.70;99.90
46331;DHT22;32049;52.346;4.870;2022-10-22T20:52:32;14.60;99.90
46331;DHT22;32049;52.346;4.870;2022-10-22T20:55:24;14.70;99.90
46331;DHT22;32049;52.346;4.870;2022-10-22T20:58:15;14.80;99.90
46331;DHT22;32049;52.346;4.870;2022-10-22T21:05:02;14.70;99.90
46331;DHT22;32049;52.346;4.870;2022-10-22T21:08:01;14.70;99.90
46331;DHT22;32049;52.346;4.870;2022-10-22T21:11:00;14.70;99.90
46331;DHT22;32049;52.346;4.870;2022-10-22T21:13:50;14.70;99.90
46331;DHT22;32049;52.346;4.870;2022-10-22T21:16:55;14.60;99.90
46331;DHT22;32049;52.346;4.870;2022-10-22T21:19:43;14.60;99.90
46331;DHT22;32049;52.346;4.870;2022-10-22T21:22:31;14.50;99.90
46331;DHT22;32049;52.346;4.870;2022-10-22T21:25:23;14.50;99.90
46331;DHT22;32049;52.346;4.870;2022-10-22T21:28:14;14.50;99.90
46331;DHT22;32049;52.346;4.870;2022-10-22T21:31:08;14.50;99.90
46331;DHT22;32049;52.346;4.870;2022-10-22T21:33:56;14.60;99.90
46331;DHT22;32049;52.346;4.870;2022-10-22T21:36:44;14.40;99.90
46331;DHT22;32049;52.346;4.870;2022-10-22T21:39:32;14.50;99.90
46331;DHT22;32049;52.346;4.870;2022-10-22T21:42:28;14.50;99.90
46331;DHT22;32049;52.346;4.870;2022-10-22T21:45:16;14.50;99.90
46331;DHT22;32049;52.346;4.870;2022-10-22T21:48:10;14.60;99.90
46331;DHT22;32049;52.346;4.870;2022-10-22T21:50:58;14.70;99.90
46331;DHT22;32049;52.346;4.870;2022-10-22T21:53:49;14.60;99.90
46331;DHT22;32049;52.346;4.870;2022-10-22T21:56:38;14.60;99.90
46331;DHT22;32049;52.346;4.870;2022-10-22T21:59:29;14.60;99.90
46331;DHT22;32049;52.346;4.870;2022-10-22T22:02:20;14.50;99.90
46331;DHT22;32049;52.346;4.870;2022-10-22T22:05:12;14.50;99.90
46331;DHT22;32049;52.346;4.870;2022-10-22T22:08:02;14.50;99.90
46331;DHT22;32049;52.346;4.870;2022-10-22T22:11:02;14.50;99.90
46331;DHT22;32049;52.346;4.870;2022-10-22T22:13:52;14.50;99.90
46331;DHT22;32049;52.346;4.870;2022-10-22T22:16:45;14.40;99.90
46331;DHT22;32049;52.346;4.870;2022-10-22T22:19:38;14.50;99.90
46331;DHT22;32049;52.346;4.870;2022-10-22T22:22:33;14.40;99.90
46331;DHT22;32049;52.346;4.870;2022-10-22T22:25:24;14.50;99.90
46331;DHT22;32049;52.346;4.870;2022-10-22T22:28:12;14.40;99.90
46331;DHT22;32049;52.346;4.870;2022-10-22T22:31:09;14.50;99.90
46331;DHT22;32049;52.346;4.870;2022-10-22T22:37:27;14.40;99.90
46331;DHT22;32049;52.346;4.870;2022-10-22T22:40:19;14.50;99.90
46331;DHT22;32049;52.346;4.870;2022-10-22T22:43:09;14.40;99.90
46331;DHT22;32049;52.346;4.870;2022-10-22T22:46:09;14.50;99.90
46331;DHT22;32049;52.346;4.870;2022-10-22T22:49:03;14.50;99.90
46331;DHT22;32049;52.346;4.870;2022-10-22T22:51:57;14.50;99.90
46331;DHT22;32049;52.346;4.870;2022-10-22T22:54:51;14.50;99.90
46331;DHT22;32049;52.346;4.870;2022-10-22T22:57:42;14.60;99.90
46331;DHT22;32049;52.346;4.870;2022-10-22T23:00:34;14.60;99.90
46331;DHT22;32049;52.346;4.870;2022-10-22T23:03:24;14.50;99.90
46331;DHT22;32049;52.346;4.870;2022-10-22T23:06:16;14.50;99.90
46331;DHT22;32049;52.346;4.870;2022-10-22T23:09:08;14.50;99.90
46331;DHT22;32049;52.346;4.870;2022-10-22T23:12:01;14.60;99.90
46331;DHT22;32049;52.346;4.870;2022-10-22T23:14:50;14.40;99.90
46331;DHT22;32049;52.346;4.870;2022-10-22T23:17:42;14.40;99.90
46331;DHT22;32049;52.346;4.870;2022-10-22T23:20:30;14.40;99.90
46331;DHT22;32049;52.346;4.870;2022-10-22T23:23:22;14.40;99.90
46331;DHT22;32049;52.346;4.870;2022-10-22T23:31:01;14.30;99.90
46331;DHT22;32049;52.346;4.870;2022-10-22T23:34:15;14.30;99.90
46331;DHT22;32049;52.346;4.870;2022-10-22T23:37:11;14.30;99.90
46331;DHT22;32049;52.346;4.870;2022-10-22T23:40:00;14.20;99.90
46331;DHT22;32049;52.346;4.870;2022-10-22T23:42:48;14.30;99.90
46331;DHT22;32049;52.346;4.870;2022-10-22T23:45:40;14.20;99.90
46331;DHT22;32049;52.346;4.870;2022-10-22T23:48:31;14.20;99.90
46331;DHT22;32049;52.346;4.870;2022-10-22T23:51:24;14.30;99.90
46331;DHT22;32049;52.346;4.870;2022-10-22T23:54:15;14.20;99.90
46331;DHT22;32049;52.346;4.870;2022-10-22T23:57:05;14.20;99.90
46331;DHT22;32049;52.346;4.870;2022-10-22T23:59:53;14.20;99.90
